createdAt,value
2017-09-13T00:00:28.789Z,0
2017-09-13T00:01:28.745Z,0
2017-09-13T00:02:28.733Z,0
2017-09-13T00:03:28.501Z,0
2017-09-13T00:04:28.684Z,0
2017-09-13T00:05:28.360Z,0
2017-09-13T00:06:28.041Z,0
2017-09-13T00:07:28.646Z,0
2017-09-13T00:08:28.621Z,0
2017-09-13T00:09:28.592Z,0
2017-09-13T00:10:28.254Z,0
2017-09-13T00:11:28.250Z,0
2017-09-13T00:12:28.250Z,0
2017-09-13T00:13:27.905Z,0
2017-09-13T00:14:27.906Z,0
2017-09-13T00:15:28.180Z,0
2017-09-13T00:16:27.857Z,0
2017-09-13T00:17:28.153Z,0
2017-09-13T00:18:28.422Z,0
2017-09-13T00:19:28.106Z,0
2017-09-13T00:20:28.102Z,0
2017-09-13T00:21:27.461Z,0
2017-09-13T00:22:28.370Z,0
2017-09-13T00:23:28.348Z,0
2017-09-13T00:24:28.022Z,0
2017-09-13T00:25:28.311Z,0
2017-09-13T00:26:28.309Z,0
2017-09-13T00:27:27.646Z,0
2017-09-13T00:28:27.630Z,0
2017-09-13T00:29:27.603Z,0
2017-09-13T00:30:28.208Z,0
2017-09-13T00:31:27.869Z,0
2017-09-13T00:32:27.571Z,0
2017-09-13T00:33:27.839Z,0
2017-09-13T00:34:27.500Z,0
2017-09-13T00:35:27.800Z,0
2017-09-13T00:36:27.580Z,0
2017-09-13T00:37:27.770Z,0
2017-09-13T00:38:27.740Z,0
2017-09-13T00:39:27.822Z,0
2017-09-13T00:40:27.718Z,0
2017-09-13T00:41:27.686Z,0
2017-09-13T00:42:27.964Z,0
2017-09-13T00:43:27.343Z,0
2017-09-13T00:44:27.718Z,0
2017-09-13T00:45:27.622Z,0
2017-09-13T00:46:27.906Z,0
2017-09-13T00:47:27.571Z,0
2017-09-13T00:48:27.379Z,0
2017-09-13T00:49:27.540Z,0
2017-09-13T00:50:27.570Z,0
2017-09-13T00:51:27.822Z,0
2017-09-13T00:52:27.182Z,0
2017-09-13T00:53:27.789Z,0
2017-09-13T00:54:27.770Z,0
2017-09-13T00:55:27.569Z,0
2017-09-13T00:56:27.721Z,0
2017-09-13T00:57:27.380Z,0
2017-09-13T00:58:27.417Z,0
2017-09-13T00:59:27.036Z,0
2017-09-13T01:00:27.462Z,0
2017-09-13T01:01:27.683Z,0
2017-09-13T01:02:26.970Z,0
2017-09-13T01:03:26.666Z,0
2017-09-13T01:04:27.670Z,0
2017-09-13T01:05:27.273Z,0
2017-09-13T01:06:27.656Z,0
2017-09-13T01:07:26.571Z,0
2017-09-13T01:08:27.190Z,0
2017-09-13T01:09:26.607Z,0
2017-09-13T01:10:27.490Z,0
2017-09-13T01:11:27.130Z,0
2017-09-13T01:12:27.443Z,0
2017-09-13T01:13:26.902Z,0
2017-09-13T01:14:27.072Z,0
2017-09-13T01:15:26.491Z,0
2017-09-13T01:16:26.727Z,0
2017-09-13T01:17:27.337Z,0
2017-09-13T01:18:26.420Z,0
2017-09-13T01:19:26.651Z,0
2017-09-13T01:20:26.706Z,0
2017-09-13T01:21:26.667Z,0
2017-09-13T01:22:26.610Z,0
2017-09-13T01:23:27.017Z,0
2017-09-13T01:24:26.563Z,0
2017-09-13T01:25:26.871Z,0
2017-09-13T01:26:26.849Z,0
2017-09-13T01:27:26.523Z,0
2017-09-13T01:28:26.520Z,0
2017-09-13T01:29:26.632Z,0
2017-09-13T01:30:26.491Z,0
2017-09-13T01:31:26.440Z,0
2017-09-13T01:32:27.042Z,0
2017-09-13T01:33:26.401Z,0
2017-09-13T01:34:26.391Z,0
2017-09-13T01:35:26.987Z,0
2017-09-13T01:36:26.792Z,0
2017-09-13T01:37:26.440Z,0
2017-09-13T01:38:26.609Z,0
2017-09-13T01:39:26.287Z,0
2017-09-13T01:40:26.919Z,0
2017-09-13T01:41:26.546Z,0
2017-09-13T01:42:26.544Z,0
2017-09-13T01:43:26.532Z,0
2017-09-13T01:44:25.880Z,0
2017-09-13T01:45:26.483Z,0
2017-09-13T01:46:26.178Z,0
2017-09-13T01:47:26.549Z,0
2017-09-13T01:48:26.440Z,0
2017-09-13T01:49:26.729Z,0
2017-09-13T01:50:26.419Z,0
2017-09-13T01:51:26.481Z,0
2017-09-13T01:52:26.411Z,0
2017-09-13T01:53:26.332Z,0
2017-09-13T01:54:26.628Z,0
2017-09-13T01:55:26.360Z,0
2017-09-13T01:56:26.277Z,0
2017-09-13T01:57:26.310Z,0
2017-09-13T01:58:26.542Z,0
2017-09-13T01:59:26.552Z,0
2017-09-13T02:00:26.676Z,0
2017-09-13T02:01:26.491Z,0
2017-09-13T02:02:26.481Z,0
2017-09-13T02:03:26.142Z,0
2017-09-13T02:04:26.439Z,0
2017-09-13T02:05:26.520Z,0
2017-09-13T02:06:26.416Z,0
2017-09-13T02:07:26.381Z,0
2017-09-13T02:08:26.362Z,0
2017-09-13T02:09:26.451Z,0
2017-09-13T02:10:26.495Z,0
2017-09-13T02:11:26.032Z,0
2017-09-13T02:12:26.322Z,0
2017-09-13T02:13:25.328Z,0
2017-09-13T02:14:25.928Z,0
2017-09-13T02:15:25.946Z,0
2017-09-13T02:16:25.910Z,0
2017-09-13T02:17:25.563Z,0
2017-09-13T02:18:25.851Z,0
2017-09-13T02:19:25.840Z,0
2017-09-13T02:20:25.509Z,0
2017-09-13T02:21:26.110Z,0
2017-09-13T02:22:25.862Z,0
2017-09-13T02:23:25.137Z,0
2017-09-13T02:24:25.880Z,0
2017-09-13T02:25:25.726Z,0
2017-09-13T02:26:25.123Z,0
2017-09-13T02:27:26.009Z,0
2017-09-13T02:28:26.052Z,0
2017-09-13T02:29:25.333Z,0
2017-09-13T02:30:25.941Z,0
2017-09-13T02:31:24.980Z,0
2017-09-13T02:32:25.911Z,0
2017-09-13T02:33:25.878Z,0
2017-09-13T02:34:25.859Z,0
2017-09-13T02:35:25.949Z,0
2017-09-13T02:36:25.920Z,0
2017-09-13T02:37:25.800Z,0
2017-09-13T02:38:25.156Z,0
2017-09-13T02:39:25.130Z,0
2017-09-13T02:40:24.811Z,0
2017-09-13T02:41:24.789Z,0
2017-09-13T02:42:25.697Z,0
2017-09-13T02:43:25.378Z,0
2017-09-13T02:44:25.358Z,0
2017-09-13T02:45:25.651Z,0
2017-09-13T02:46:25.621Z,0
2017-09-13T02:47:25.286Z,0
2017-09-13T02:48:25.617Z,0
2017-09-13T02:49:25.271Z,0
2017-09-13T02:50:25.223Z,0
2017-09-13T02:51:25.541Z,0
2017-09-13T02:52:25.210Z,0
2017-09-13T02:53:25.276Z,0
2017-09-13T02:54:24.864Z,0
2017-09-13T02:55:25.470Z,0
2017-09-13T02:56:25.528Z,0
2017-09-13T02:57:25.104Z,0
2017-09-13T02:58:24.768Z,0
2017-09-13T02:59:25.424Z,0
2017-09-13T03:00:25.058Z,0
2017-09-13T03:01:25.442Z,0
2017-09-13T03:02:24.737Z,0
2017-09-13T03:03:25.285Z,0
2017-09-13T03:04:25.018Z,0
2017-09-13T03:05:24.972Z,0
2017-09-13T03:06:24.602Z,0
2017-09-13T03:07:24.271Z,0
2017-09-13T03:08:24.577Z,0
2017-09-13T03:09:24.562Z,0
2017-09-13T03:10:24.652Z,0
2017-09-13T03:11:24.195Z,0
2017-09-13T03:12:24.802Z,0
2017-09-13T03:13:24.789Z,0
2017-09-13T03:14:24.442Z,0
2017-09-13T03:15:24.837Z,0
2017-09-13T03:16:25.046Z,0
2017-09-13T03:17:24.182Z,0
2017-09-13T03:18:24.378Z,0
2017-09-13T03:19:24.383Z,0
2017-09-13T03:20:24.018Z,0
2017-09-13T03:21:24.312Z,0
2017-09-13T03:22:24.615Z,0
2017-09-13T03:23:24.594Z,0
2017-09-13T03:24:24.297Z,0
2017-09-13T03:25:24.547Z,0
2017-09-13T03:26:24.228Z,0
2017-09-13T03:27:23.899Z,0
2017-09-13T03:28:24.179Z,0
2017-09-13T03:29:24.161Z,0
2017-09-13T03:30:24.136Z,0
2017-09-13T03:31:24.108Z,0
2017-09-13T03:32:24.483Z,0
2017-09-13T03:33:24.400Z,0
2017-09-13T03:34:24.687Z,0
2017-09-13T03:35:24.050Z,0
2017-09-13T03:36:24.331Z,0
2017-09-13T03:37:24.603Z,0
2017-09-13T03:38:23.990Z,0
2017-09-13T03:39:23.973Z,0
2017-09-13T03:40:24.262Z,0
2017-09-13T03:41:23.939Z,0
2017-09-13T03:42:24.201Z,0
2017-09-13T03:43:24.236Z,0
2017-09-13T03:44:23.852Z,0
2017-09-13T03:45:24.231Z,0
2017-09-13T03:46:24.129Z,0
2017-09-13T03:47:23.808Z,0
2017-09-13T03:48:24.086Z,0
2017-09-13T03:49:23.761Z,0
2017-09-13T03:50:24.092Z,0
2017-09-13T03:51:24.063Z,0
2017-09-13T03:52:24.050Z,0
2017-09-13T03:53:24.305Z,0
2017-09-13T03:54:24.270Z,0
2017-09-13T03:55:24.089Z,0
2017-09-13T03:56:23.940Z,0
2017-09-13T03:57:23.942Z,0
2017-09-13T03:58:23.901Z,0
2017-09-13T03:59:23.888Z,0
2017-09-13T04:00:24.155Z,0
2017-09-13T04:01:23.841Z,0
2017-09-13T04:02:24.116Z,0
2017-09-13T04:03:23.480Z,0
2017-09-13T04:04:23.771Z,0
2017-09-13T04:05:24.070Z,0
2017-09-13T04:06:24.057Z,0
2017-09-13T04:07:24.020Z,0
2017-09-13T04:08:24.000Z,0
2017-09-13T04:09:24.000Z,0
2017-09-13T04:10:23.986Z,0
2017-09-13T04:11:23.093Z,0
2017-09-13T04:12:23.921Z,0
2017-09-13T04:13:23.923Z,0
2017-09-13T04:14:23.896Z,0
2017-09-13T04:15:23.871Z,0
2017-09-13T04:16:23.541Z,0
2017-09-13T04:17:23.832Z,0
2017-09-13T04:18:23.513Z,0
2017-09-13T04:19:23.501Z,0
2017-09-13T04:20:23.546Z,0
2017-09-13T04:21:23.836Z,0
2017-09-13T04:22:23.417Z,0
2017-09-13T04:23:23.730Z,0
2017-09-13T04:24:23.699Z,0
2017-09-13T04:25:23.680Z,0
2017-09-13T04:26:23.676Z,0
2017-09-13T04:27:23.006Z,0
2017-09-13T04:28:23.313Z,0
2017-09-13T04:29:23.609Z,0
2017-09-13T04:30:23.581Z,0
2017-09-13T04:31:23.549Z,0
2017-09-13T04:32:23.549Z,0
2017-09-13T04:33:22.899Z,0
2017-09-13T04:34:23.168Z,0
2017-09-13T04:35:23.170Z,0
2017-09-13T04:36:22.822Z,0
2017-09-13T04:37:22.905Z,0
2017-09-13T04:38:22.803Z,0
2017-09-13T04:39:23.400Z,0
2017-09-13T04:40:23.372Z,0
2017-09-13T04:41:22.763Z,0
2017-09-13T04:42:23.083Z,0
2017-09-13T04:43:23.339Z,0
2017-09-13T04:44:23.007Z,0
2017-09-13T04:45:22.969Z,0
2017-09-13T04:46:22.023Z,0
2017-09-13T04:47:22.963Z,0
2017-09-13T04:48:22.959Z,0
2017-09-13T04:49:23.204Z,0
2017-09-13T04:50:22.606Z,0
2017-09-13T04:51:22.268Z,0
2017-09-13T04:52:22.828Z,0
2017-09-13T04:53:22.883Z,0
2017-09-13T04:54:22.906Z,0
2017-09-13T04:55:22.448Z,0
2017-09-13T04:56:22.860Z,0
2017-09-13T04:57:23.047Z,0
2017-09-13T04:58:22.728Z,0
2017-09-13T04:59:23.043Z,0
2017-09-13T05:00:22.400Z,0
2017-09-13T05:01:22.670Z,0
2017-09-13T05:02:22.702Z,0
2017-09-13T05:03:22.310Z,0
2017-09-13T05:04:22.939Z,0
2017-09-13T05:05:22.270Z,0
2017-09-13T05:06:22.888Z,0
2017-09-13T05:07:22.539Z,0
2017-09-13T05:08:21.889Z,0
2017-09-13T05:09:22.180Z,0
2017-09-13T05:10:21.856Z,0
2017-09-13T05:11:22.786Z,0
2017-09-13T05:12:22.139Z,0
2017-09-13T05:13:22.733Z,0
2017-09-13T05:14:22.100Z,0
2017-09-13T05:15:22.699Z,0
2017-09-13T05:16:22.699Z,0
2017-09-13T05:17:22.660Z,0
2017-09-13T05:18:22.667Z,0
2017-09-13T05:19:21.989Z,0
2017-09-13T05:20:22.599Z,0
2017-09-13T05:21:22.583Z,0
2017-09-13T05:22:21.631Z,0
2017-09-13T05:23:22.553Z,0
2017-09-13T05:24:22.209Z,0
2017-09-13T05:25:22.182Z,0
2017-09-13T05:26:22.500Z,0
2017-09-13T05:27:21.853Z,0
2017-09-13T05:28:21.823Z,0
2017-09-13T05:29:22.093Z,0
2017-09-13T05:30:22.413Z,0
2017-09-13T05:31:22.079Z,0
2017-09-13T05:32:21.738Z,0
2017-09-13T05:33:22.358Z,0
2017-09-13T05:34:22.332Z,0
2017-09-13T05:35:22.002Z,0
2017-09-13T05:36:21.368Z,0
2017-09-13T05:37:21.983Z,0
2017-09-13T05:38:21.946Z,0
2017-09-13T05:39:21.929Z,0
2017-09-13T05:40:21.902Z,0
2017-09-13T05:41:21.873Z,0
2017-09-13T05:42:21.909Z,0
2017-09-13T05:43:22.149Z,0
2017-09-13T05:44:21.827Z,0
2017-09-13T05:45:22.112Z,0
2017-09-13T05:46:21.576Z,0
2017-09-13T05:47:21.782Z,0
2017-09-13T05:48:21.800Z,0
2017-09-13T05:49:21.778Z,0
2017-09-13T05:50:22.038Z,0
2017-09-13T05:51:22.002Z,0
2017-09-13T05:52:22.002Z,5
2017-09-13T05:53:21.651Z,5
2017-09-13T05:54:21.691Z,5
2017-09-13T05:55:21.950Z,5
2017-09-13T05:56:21.900Z,5
2017-09-13T05:57:21.585Z,0
2017-09-13T05:58:21.560Z,0
2017-09-13T05:59:21.554Z,5
2017-09-13T06:00:21.563Z,5
2017-09-13T06:01:21.544Z,5
2017-09-13T06:02:21.799Z,0
2017-09-13T06:03:21.782Z,0
2017-09-13T06:04:21.750Z,0
2017-09-13T06:05:21.730Z,5
2017-09-13T06:06:21.750Z,5
2017-09-13T06:07:21.711Z,10
2017-09-13T06:08:21.080Z,10
2017-09-13T06:09:21.491Z,5
2017-09-13T06:10:21.649Z,5
2017-09-13T06:11:21.670Z,5
2017-09-13T06:12:20.673Z,5
2017-09-13T06:13:21.597Z,10
2017-09-13T06:14:21.568Z,15
2017-09-13T06:15:21.719Z,20
2017-09-13T06:16:21.566Z,15
2017-09-13T06:17:21.537Z,10
2017-09-13T06:18:20.569Z,10
2017-09-13T06:19:21.515Z,5
2017-09-13T06:20:21.579Z,5
2017-09-13T06:21:20.859Z,10
2017-09-13T06:22:21.160Z,15
2017-09-13T06:23:21.389Z,10
2017-09-13T06:24:20.782Z,10
2017-09-13T06:25:20.759Z,10
2017-09-13T06:26:21.055Z,10
2017-09-13T06:27:21.042Z,10
2017-09-13T06:28:21.048Z,10
2017-09-13T06:29:20.990Z,10
2017-09-13T06:30:20.704Z,10
2017-09-13T06:31:20.630Z,15
2017-09-13T06:32:20.618Z,10
2017-09-13T06:33:21.188Z,5
2017-09-13T06:34:20.910Z,5
2017-09-13T06:35:20.863Z,5
2017-09-13T06:36:20.542Z,5
2017-09-13T06:37:21.150Z,10
2017-09-13T06:38:20.795Z,10
2017-09-13T06:39:20.830Z,5
2017-09-13T06:40:20.156Z,10
2017-09-13T06:41:20.116Z,5
2017-09-13T06:42:20.409Z,5
2017-09-13T06:43:21.040Z,5
2017-09-13T06:44:20.674Z,5
2017-09-13T06:45:20.358Z,5
2017-09-13T06:46:20.342Z,5
2017-09-13T06:47:20.929Z,10
2017-09-13T06:48:19.992Z,35
2017-09-13T06:49:19.969Z,30
2017-09-13T06:50:20.572Z,20
2017-09-13T06:51:20.254Z,20
2017-09-13T06:52:20.222Z,25
2017-09-13T06:53:20.842Z,30
2017-09-13T06:54:20.498Z,45
2017-09-13T06:55:20.550Z,65
2017-09-13T06:56:20.449Z,65
2017-09-13T06:57:20.742Z,160
2017-09-13T06:58:20.455Z,105
2017-09-13T06:59:20.457Z,110
2017-09-13T07:00:20.388Z,155
2017-09-13T07:01:20.378Z,155
2017-09-13T07:02:20.044Z,135
2017-09-13T07:03:20.387Z,140
2017-09-13T07:04:20.630Z,120
2017-09-13T07:05:20.302Z,105
2017-09-13T07:06:19.683Z,180
2017-09-13T07:07:20.329Z,225
2017-09-13T07:08:20.538Z,205
2017-09-13T07:09:20.551Z,180
2017-09-13T07:10:20.324Z,165
2017-09-13T07:11:20.246Z,185
2017-09-13T07:12:19.887Z,195
2017-09-13T07:13:20.172Z,200
2017-09-13T07:14:19.979Z,215
2017-09-13T07:15:19.829Z,220
2017-09-13T07:16:20.419Z,240
2017-09-13T07:17:20.094Z,250
2017-09-13T07:18:19.879Z,250
2017-09-13T07:19:20.409Z,220
2017-09-13T07:20:19.466Z,170
2017-09-13T07:21:19.724Z,150
2017-09-13T07:22:20.311Z,185
2017-09-13T07:23:19.679Z,205
2017-09-13T07:24:20.298Z,200
2017-09-13T07:25:19.640Z,195
2017-09-13T07:26:20.050Z,225
2017-09-13T07:27:19.948Z,250
2017-09-13T07:28:19.908Z,255
2017-09-13T07:29:19.918Z,175
2017-09-13T07:30:19.270Z,170
2017-09-13T07:31:19.545Z,175
2017-09-13T07:32:19.555Z,175
2017-09-13T07:33:19.843Z,175
2017-09-13T07:34:19.910Z,130
2017-09-13T07:35:19.589Z,125
2017-09-13T07:36:19.502Z,155
2017-09-13T07:37:19.462Z,205
2017-09-13T07:38:20.175Z,175
2017-09-13T07:39:20.120Z,145
2017-09-13T07:40:19.405Z,115
2017-09-13T07:41:19.091Z,85
2017-09-13T07:42:19.536Z,65
2017-09-13T07:43:19.061Z,65
2017-09-13T07:44:19.368Z,60
2017-09-13T07:45:19.352Z,60
2017-09-13T07:46:19.976Z,75
2017-09-13T07:47:19.131Z,105
2017-09-13T07:48:19.286Z,165
2017-09-13T07:49:19.388Z,60
2017-09-13T07:50:19.259Z,60
2017-09-13T07:51:19.247Z,70
2017-09-13T07:52:19.251Z,55
2017-09-13T07:53:19.537Z,80
2017-09-13T07:54:19.217Z,65
2017-09-13T07:55:19.844Z,70
2017-09-13T07:56:18.930Z,40
2017-09-13T07:57:19.189Z,35
2017-09-13T07:58:19.753Z,35
2017-09-13T07:59:19.113Z,30
2017-09-13T08:00:19.412Z,30
2017-09-13T08:01:19.157Z,35
2017-09-13T08:02:19.387Z,35
2017-09-13T08:03:19.125Z,40
2017-09-13T08:04:19.043Z,40
2017-09-13T08:05:19.340Z,40
2017-09-13T08:06:19.301Z,40
2017-09-13T08:07:19.291Z,45
2017-09-13T08:08:19.280Z,40
2017-09-13T08:09:19.565Z,45
2017-09-13T08:10:19.252Z,55
2017-09-13T08:11:19.564Z,55
2017-09-13T08:12:18.608Z,50
2017-09-13T08:13:19.541Z,45
2017-09-13T08:14:19.179Z,50
2017-09-13T08:15:19.160Z,50
2017-09-13T08:16:19.192Z,50
2017-09-13T08:17:19.417Z,50
2017-09-13T08:18:19.417Z,50
2017-09-13T08:19:19.093Z,55
2017-09-13T08:20:19.070Z,60
2017-09-13T08:21:19.132Z,70
2017-09-13T08:22:19.387Z,95
2017-09-13T08:23:19.019Z,130
2017-09-13T08:24:19.006Z,180
2017-09-13T08:25:19.314Z,340
2017-09-13T08:26:19.320Z,180
2017-09-13T08:27:19.329Z,140
2017-09-13T08:28:19.305Z,115
2017-09-13T08:29:19.227Z,95
2017-09-13T08:30:18.902Z,90
2017-09-13T08:31:19.209Z,75
2017-09-13T08:32:19.211Z,65
2017-09-13T08:33:19.189Z,70
2017-09-13T08:34:19.209Z,75
2017-09-13T08:35:18.630Z,90
2017-09-13T08:36:19.130Z,105
2017-09-13T08:37:18.787Z,185
2017-09-13T08:38:18.785Z,140
2017-09-13T08:39:19.071Z,210
2017-09-13T08:40:18.750Z,260
2017-09-13T08:41:18.718Z,1320
2017-09-13T08:42:18.720Z,240
2017-09-13T08:43:19.039Z,220
2017-09-13T08:44:18.965Z,415
2017-09-13T08:45:18.650Z,960
2017-09-13T08:46:18.328Z,1515
2017-09-13T08:47:18.625Z,375
2017-09-13T08:48:18.937Z,320
2017-09-13T08:49:18.909Z,185
2017-09-13T08:50:18.941Z,160
2017-09-13T08:51:18.900Z,245
2017-09-13T08:52:18.880Z,505
2017-09-13T08:53:18.852Z,180
2017-09-13T08:54:18.219Z,155
2017-09-13T08:55:18.838Z,160
2017-09-13T08:56:18.510Z,160
2017-09-13T08:57:18.172Z,100
2017-09-13T08:58:18.498Z,75
2017-09-13T08:59:18.757Z,65
2017-09-13T09:00:18.770Z,60
2017-09-13T09:01:18.130Z,65
2017-09-13T09:02:18.758Z,55
2017-09-13T09:03:18.730Z,45
2017-09-13T09:04:18.066Z,60
2017-09-13T09:05:18.659Z,75
2017-09-13T09:06:18.349Z,80
2017-09-13T09:07:18.634Z,110
2017-09-13T09:08:18.337Z,140
2017-09-13T09:09:18.619Z,155
2017-09-13T09:10:18.309Z,275
2017-09-13T09:11:18.268Z,205
2017-09-13T09:12:18.271Z,635
2017-09-13T09:13:18.223Z,235
2017-09-13T09:14:18.298Z,295
2017-09-13T09:15:17.913Z,310
2017-09-13T09:16:18.253Z,120
2017-09-13T09:17:17.887Z,75
2017-09-13T09:18:18.480Z,60
2017-09-13T09:19:18.150Z,50
2017-09-13T09:20:17.500Z,55
2017-09-13T09:21:18.124Z,50
2017-09-13T09:22:18.109Z,45
2017-09-13T09:23:18.093Z,40
2017-09-13T09:24:18.382Z,40
2017-09-13T09:25:17.750Z,40
2017-09-13T09:26:18.052Z,35
2017-09-13T09:27:18.093Z,35
2017-09-13T09:28:18.065Z,35
2017-09-13T09:29:18.308Z,35
2017-09-13T09:30:17.966Z,35
2017-09-13T09:31:17.967Z,40
2017-09-13T09:32:18.300Z,50
2017-09-13T09:33:17.990Z,90
2017-09-13T09:34:18.220Z,130
2017-09-13T09:35:17.962Z,140
2017-09-13T09:36:17.879Z,160
2017-09-13T09:37:17.899Z,125
2017-09-13T09:38:18.187Z,265
2017-09-13T09:39:18.199Z,235
2017-09-13T09:40:18.199Z,265
2017-09-13T09:41:17.499Z,315
2017-09-13T09:42:17.920Z,625
2017-09-13T09:43:18.102Z,480
2017-09-13T09:44:17.789Z,1175
2017-09-13T09:45:18.089Z,1235
2017-09-13T09:46:18.162Z,1240
2017-09-13T09:47:17.801Z,380
2017-09-13T09:48:17.386Z,515
2017-09-13T09:49:18.019Z,165
2017-09-13T09:50:18.009Z,130
2017-09-13T09:51:17.717Z,125
2017-09-13T09:52:17.328Z,140
2017-09-13T09:53:17.339Z,185
2017-09-13T09:54:17.707Z,205
2017-09-13T09:55:17.328Z,175
2017-09-13T09:56:17.918Z,160
2017-09-13T09:57:17.508Z,145
2017-09-13T09:58:17.941Z,150
2017-09-13T09:59:17.858Z,155
2017-09-13T10:00:17.202Z,120
2017-09-13T10:01:17.530Z,130
2017-09-13T10:02:16.869Z,145
2017-09-13T10:03:16.869Z,195
2017-09-13T10:04:17.535Z,320
2017-09-13T10:05:16.827Z,220
2017-09-13T10:06:17.144Z,190
2017-09-13T10:07:17.781Z,575
2017-09-13T10:08:16.790Z,1090
2017-09-13T10:09:17.099Z,1045
2017-09-13T10:10:17.434Z,1010
2017-09-13T10:11:16.795Z,1110
2017-09-13T10:12:17.035Z,1075
2017-09-13T10:13:17.701Z,1020
2017-09-13T10:14:16.997Z,1045
2017-09-13T10:15:17.290Z,1015
2017-09-13T10:16:17.290Z,985
2017-09-13T10:17:17.679Z,975
2017-09-13T10:18:17.367Z,930
2017-09-13T10:19:16.939Z,935
2017-09-13T10:20:17.248Z,945
2017-09-13T10:21:17.227Z,705
2017-09-13T10:22:17.530Z,785
2017-09-13T10:23:16.896Z,535
2017-09-13T10:24:17.490Z,420
2017-09-13T10:25:16.874Z,285
2017-09-13T10:26:16.857Z,245
2017-09-13T10:27:17.153Z,275
2017-09-13T10:28:17.146Z,385
2017-09-13T10:29:17.128Z,365
2017-09-13T10:30:16.870Z,370
2017-09-13T10:31:16.487Z,360
2017-09-13T10:32:17.087Z,315
2017-09-13T10:33:17.088Z,310
2017-09-13T10:34:17.057Z,320
2017-09-13T10:35:16.760Z,280
2017-09-13T10:36:17.068Z,335
2017-09-13T10:37:17.047Z,250
2017-09-13T10:38:17.347Z,305
2017-09-13T10:39:17.016Z,315
2017-09-13T10:40:16.679Z,345
2017-09-13T10:41:17.007Z,320
2017-09-13T10:42:16.678Z,220
2017-09-13T10:43:16.975Z,380
2017-09-13T10:44:16.948Z,355
2017-09-13T10:45:17.278Z,345
2017-09-13T10:46:17.237Z,335
2017-09-13T10:47:16.926Z,345
2017-09-13T10:48:16.908Z,365
2017-09-13T10:49:17.028Z,345
2017-09-13T10:50:16.901Z,345
2017-09-13T10:51:16.870Z,175
2017-09-13T10:52:17.170Z,175
2017-09-13T10:53:17.177Z,320
2017-09-13T10:54:16.859Z,330
2017-09-13T10:55:17.130Z,325
2017-09-13T10:56:16.850Z,320
2017-09-13T10:57:17.109Z,300
2017-09-13T10:58:16.792Z,210
2017-09-13T10:59:17.104Z,330
2017-09-13T11:00:16.459Z,210
2017-09-13T11:01:16.769Z,340
2017-09-13T11:02:16.798Z,165
2017-09-13T11:03:16.716Z,155
2017-09-13T11:04:16.741Z,325
2017-09-13T11:05:16.708Z,205
2017-09-13T11:06:16.985Z,345
2017-09-13T11:07:16.974Z,320
2017-09-13T11:08:16.742Z,290
2017-09-13T11:09:16.953Z,175
2017-09-13T11:10:16.997Z,340
2017-09-13T11:11:16.939Z,310
2017-09-13T11:12:16.626Z,340
2017-09-13T11:13:16.966Z,305
2017-09-13T11:14:16.911Z,300
2017-09-13T11:15:16.586Z,300
2017-09-13T11:16:16.350Z,300
2017-09-13T11:17:16.866Z,305
2017-09-13T11:18:16.948Z,315
2017-09-13T11:19:16.867Z,325
2017-09-13T11:20:16.853Z,205
2017-09-13T11:21:16.500Z,345
2017-09-13T11:22:16.849Z,305
2017-09-13T11:23:16.827Z,235
2017-09-13T11:24:16.898Z,355
2017-09-13T11:25:16.458Z,190
2017-09-13T11:26:16.115Z,330
2017-09-13T11:27:16.418Z,215
2017-09-13T11:28:16.428Z,210
2017-09-13T11:29:16.744Z,185
2017-09-13T11:30:16.693Z,185
2017-09-13T11:31:16.781Z,205
2017-09-13T11:32:16.681Z,260
2017-09-13T11:33:16.358Z,175
2017-09-13T11:34:16.660Z,175
2017-09-13T11:35:16.652Z,205
2017-09-13T11:36:16.624Z,345
2017-09-13T11:37:16.616Z,265
2017-09-13T11:38:16.299Z,320
2017-09-13T11:39:16.267Z,275
2017-09-13T11:40:16.614Z,315
2017-09-13T11:41:16.225Z,295
2017-09-13T11:42:16.586Z,300
2017-09-13T11:43:16.280Z,305
2017-09-13T11:44:15.877Z,160
2017-09-13T11:45:16.537Z,300
2017-09-13T11:46:16.498Z,290
2017-09-13T11:47:16.154Z,280
2017-09-13T11:48:16.502Z,280
2017-09-13T11:49:16.468Z,280
2017-09-13T11:50:16.458Z,280
2017-09-13T11:51:16.408Z,275
2017-09-13T11:52:16.406Z,275
2017-09-13T11:53:15.603Z,270
2017-09-13T11:54:16.377Z,275
2017-09-13T11:55:16.376Z,275
2017-09-13T11:56:16.038Z,270
2017-09-13T11:57:16.353Z,270
2017-09-13T11:58:16.335Z,265
2017-09-13T11:59:15.389Z,270
2017-09-13T12:00:16.327Z,275
2017-09-13T12:01:15.999Z,275
2017-09-13T12:02:16.289Z,285
2017-09-13T12:03:16.288Z,290
2017-09-13T12:04:16.254Z,285
2017-09-13T12:05:15.946Z,280
2017-09-13T12:06:15.710Z,275
2017-09-13T12:07:15.954Z,280
2017-09-13T12:08:15.927Z,275
2017-09-13T12:09:15.908Z,270
2017-09-13T12:10:15.854Z,275
2017-09-13T12:11:15.867Z,275
2017-09-13T12:12:15.849Z,280
2017-09-13T12:13:16.158Z,120
2017-09-13T12:14:15.830Z,125
2017-09-13T12:15:15.827Z,300
2017-09-13T12:16:15.808Z,285
2017-09-13T12:17:15.839Z,130
2017-09-13T12:18:16.070Z,290
2017-09-13T12:19:15.777Z,295
2017-09-13T12:20:15.838Z,140
2017-09-13T12:21:16.127Z,290
2017-09-13T12:22:15.768Z,295
2017-09-13T12:23:16.019Z,130
2017-09-13T12:24:15.680Z,140
2017-09-13T12:25:16.027Z,135
2017-09-13T12:26:15.977Z,140
2017-09-13T12:27:15.672Z,180
2017-09-13T12:28:15.666Z,140
2017-09-13T12:29:15.730Z,285
2017-09-13T12:30:15.958Z,185
2017-09-13T12:31:15.937Z,270
2017-09-13T12:32:15.592Z,135
2017-09-13T12:33:15.252Z,280
2017-09-13T12:34:15.884Z,285
2017-09-13T12:35:15.548Z,280
2017-09-13T12:36:15.640Z,280
2017-09-13T12:37:15.200Z,270
2017-09-13T12:38:15.845Z,270
2017-09-13T12:39:15.283Z,275
2017-09-13T12:40:15.852Z,275
2017-09-13T12:41:15.816Z,275
2017-09-13T12:42:15.810Z,270
2017-09-13T12:43:15.768Z,265
2017-09-13T12:44:15.750Z,265
2017-09-13T12:45:15.718Z,270
2017-09-13T12:46:15.402Z,265
2017-09-13T12:47:15.401Z,265
2017-09-13T12:48:15.360Z,265
2017-09-13T12:49:15.668Z,265
2017-09-13T12:50:15.408Z,275
2017-09-13T12:51:15.338Z,275
2017-09-13T12:52:15.642Z,275
2017-09-13T12:53:15.634Z,270
2017-09-13T12:54:15.013Z,270
2017-09-13T12:55:15.302Z,145
2017-09-13T12:56:15.267Z,165
2017-09-13T12:57:15.267Z,275
2017-09-13T12:58:15.258Z,275
2017-09-13T12:59:15.558Z,255
2017-09-13T13:00:14.912Z,220
2017-09-13T13:01:15.233Z,260
2017-09-13T13:02:15.545Z,120
2017-09-13T13:03:15.233Z,125
2017-09-13T13:04:15.518Z,260
2017-09-13T13:05:15.489Z,260
2017-09-13T13:06:15.479Z,250
2017-09-13T13:07:15.500Z,260
2017-09-13T13:08:14.809Z,245
2017-09-13T13:09:15.137Z,230
2017-09-13T13:10:15.115Z,255
2017-09-13T13:11:15.116Z,255
2017-09-13T13:12:15.067Z,150
2017-09-13T13:13:15.390Z,255
2017-09-13T13:14:15.378Z,260
2017-09-13T13:15:14.767Z,255
2017-09-13T13:16:15.364Z,120
2017-09-13T13:17:14.411Z,115
2017-09-13T13:18:15.013Z,255
2017-09-13T13:19:14.983Z,270
2017-09-13T13:20:14.654Z,260
2017-09-13T13:21:14.658Z,220
2017-09-13T13:22:15.297Z,130
2017-09-13T13:23:14.999Z,115
2017-09-13T13:24:15.241Z,270
2017-09-13T13:25:15.233Z,145
2017-09-13T13:26:14.907Z,130
2017-09-13T13:27:14.923Z,165
2017-09-13T13:28:14.918Z,165
2017-09-13T13:29:14.947Z,170
2017-09-13T13:30:14.550Z,150
2017-09-13T13:31:15.168Z,235
2017-09-13T13:32:14.558Z,120
2017-09-13T13:33:15.129Z,260
2017-09-13T13:34:15.122Z,130
2017-09-13T13:35:14.795Z,145
2017-09-13T13:36:14.903Z,260
2017-09-13T13:37:14.763Z,175
2017-09-13T13:38:14.763Z,100
2017-09-13T13:39:15.062Z,95
2017-09-13T13:40:14.729Z,105
2017-09-13T13:41:15.007Z,250
2017-09-13T13:42:14.702Z,175
2017-09-13T13:43:14.702Z,140
2017-09-13T13:44:14.440Z,90
2017-09-13T13:45:15.061Z,100
2017-09-13T13:46:14.327Z,110
2017-09-13T13:47:14.341Z,100
2017-09-13T13:48:15.041Z,105
2017-09-13T13:49:14.981Z,105
2017-09-13T13:50:14.938Z,110
2017-09-13T13:51:14.959Z,125
2017-09-13T13:52:14.886Z,125
2017-09-13T13:53:14.556Z,250
2017-09-13T13:54:14.929Z,145
2017-09-13T13:55:14.549Z,115
2017-09-13T13:56:14.873Z,110
2017-09-13T13:57:14.319Z,100
2017-09-13T13:58:14.237Z,95
2017-09-13T13:59:14.554Z,100
2017-09-13T14:00:14.778Z,240
2017-09-13T14:01:14.543Z,115
2017-09-13T14:02:14.450Z,210
2017-09-13T14:03:14.710Z,240
2017-09-13T14:04:14.408Z,115
2017-09-13T14:05:14.702Z,230
2017-09-13T14:06:14.370Z,235
2017-09-13T14:07:14.370Z,240
2017-09-13T14:08:14.657Z,170
2017-09-13T14:09:14.379Z,230
2017-09-13T14:10:14.340Z,230
2017-09-13T14:11:14.307Z,230
2017-09-13T14:12:14.615Z,225
2017-09-13T14:13:14.310Z,165
2017-09-13T14:14:14.577Z,225
2017-09-13T14:15:14.584Z,105